createdAt,value
2019-05-06T00:00:01.190Z,95.57
2019-05-06T00:05:01.309Z,95.43
2019-05-06T00:10:01.438Z,95.48
2019-05-06T00:15:03.761Z,95.73
2019-05-06T00:20:01.186Z,95.74
2019-05-06T00:25:01.278Z,95.9
2019-05-06T00:30:01.397Z,96.09
2019-05-06T00:35:01.631Z,96.33
2019-05-06T00:40:01.897Z,96.38
2019-05-06T00:45:04.265Z,96.6
2019-05-06T00:50:01.601Z,96.84
2019-05-06T00:55:03.955Z,96.94
2019-05-06T01:00:01.416Z,96.89
2019-05-06T01:05:01.540Z,96.89
2019-05-06T01:10:03.682Z,96.78
2019-05-06T01:15:03.840Z,96.79
2019-05-06T01:20:04.220Z,96.97
2019-05-06T01:25:03.857Z,96.86
2019-05-06T01:30:01.110Z,96.99
2019-05-06T01:35:01.200Z,97.09
2019-05-06T01:40:03.942Z,97.09
2019-05-06T01:45:01.195Z,97.31
2019-05-06T01:50:01.285Z,97.62
2019-05-06T01:55:01.394Z,97.71
2019-05-06T02:00:01.552Z,98
2019-05-06T02:05:01.664Z,97.92
2019-05-06T02:10:03.834Z,97.08
2019-05-06T02:15:01.088Z,96.69
2019-05-06T02:20:01.238Z,96.67
2019-05-06T02:25:01.327Z,96.48
2019-05-06T02:30:05.093Z,98.42
2019-05-06T02:35:01.180Z,98.46
2019-05-06T02:40:04.110Z,98.18
2019-05-06T02:45:04.013Z,97.8
2019-05-06T02:50:04.530Z,97.5
2019-05-06T02:55:01.936Z,97.33
2019-05-06T03:00:05.044Z,96.49
2019-05-06T03:05:04.306Z,94.91
2019-05-06T03:10:04.232Z,98.27
2019-05-06T03:15:03.385Z,98.02
2019-05-06T03:20:04.254Z,97.95
2019-05-06T03:25:06.351Z,97.96
2019-05-06T03:30:04.146Z,98.17
2019-05-06T03:35:25.747Z,97.93
2019-05-06T03:40:03.029Z,98.05
2019-05-06T03:45:04.191Z,98.18
2019-05-06T03:50:04.716Z,98.11
2019-05-06T03:55:03.649Z,97.57
2019-05-06T04:00:04.442Z,97.61
2019-05-06T04:05:04.029Z,97.53
2019-05-06T04:10:03.557Z,97.65
2019-05-06T04:15:04.023Z,97.32
2019-05-06T04:20:04.060Z,97.7
2019-05-06T04:25:03.922Z,97.59
2019-05-06T04:30:04.328Z,97.79
2019-05-06T04:35:04.346Z,97.92
2019-05-06T04:40:04.332Z,98.04
2019-05-06T04:45:04.554Z,98
2019-05-06T04:50:04.891Z,97.5
2019-05-06T04:55:03.430Z,97.63
2019-05-06T05:00:04.026Z,97.21
2019-05-06T05:05:04.064Z,96.93
2019-05-06T05:10:03.517Z,95.83
2019-05-06T05:15:03.241Z,95.72
2019-05-06T05:20:02.132Z,95.89
2019-05-06T05:25:03.524Z,94.24
2019-05-06T05:30:02.171Z,94.64
2019-05-06T05:35:02.034Z,94.04
2019-05-06T05:40:03.042Z,93.26
2019-05-06T05:45:02.710Z,92.35
2019-05-06T05:50:02.968Z,91.19
2019-05-06T05:55:02.708Z,91.55
2019-05-06T06:00:03.916Z,91.23
2019-05-06T06:05:02.561Z,89.65
2019-05-06T06:10:02.744Z,88.53
2019-05-06T06:15:02.319Z,87.47
2019-05-06T06:20:02.656Z,86.62
2019-05-06T06:25:04.240Z,86.87
2019-05-06T06:30:02.444Z,87.46
2019-05-06T06:35:10.789Z,86.3
2019-05-06T06:40:02.577Z,85.43
2019-05-06T06:45:03.441Z,84.77
2019-05-06T06:50:02.755Z,87
2019-05-06T06:55:02.647Z,86.48
2019-05-06T07:00:04.115Z,85.52
2019-05-06T07:05:02.362Z,86.17
2019-05-06T07:10:02.696Z,81.51
2019-05-06T07:15:02.424Z,79.88
2019-05-06T07:20:02.904Z,78.43
2019-05-06T07:25:03.753Z,77.68
2019-05-06T07:30:02.993Z,76.04
2019-05-06T07:35:02.223Z,75.03
2019-05-06T07:40:03.028Z,78.5
2019-05-06T07:45:06.371Z,76.61
2019-05-06T07:50:02.572Z,76.1
2019-05-06T07:55:02.521Z,75.23
2019-05-06T08:00:03.345Z,77.89
2019-05-06T08:05:02.614Z,77.12
2019-05-06T08:10:02.250Z,73.41
2019-05-06T08:15:05.258Z,73.74
2019-05-06T08:20:02.633Z,72.44
2019-05-06T08:25:03.449Z,73.69
2019-05-06T08:30:02.382Z,74
2019-05-06T08:35:03.392Z,77.03
2019-05-06T08:40:03.314Z,75.33
2019-05-06T08:45:02.202Z,76.4
2019-05-06T08:50:02.461Z,76.58
2019-05-06T08:55:02.924Z,77.42
2019-05-06T09:00:03.402Z,76.46
2019-05-06T09:05:02.874Z,77.32
2019-05-06T09:10:02.558Z,77.22
2019-05-06T09:15:03.536Z,76.76
2019-05-06T09:20:02.664Z,76.58
2019-05-06T09:25:02.504Z,76.21
2019-05-06T09:30:02.983Z,77.32
2019-05-06T09:35:02.894Z,76.45
2019-05-06T09:40:02.772Z,76.25
2019-05-06T09:45:02.305Z,75.39
2019-05-06T09:50:02.800Z,74.44
2019-05-06T09:55:03.179Z,73.39
2019-05-06T10:00:04.631Z,75.07
2019-05-06T10:05:03.526Z,74.23
2019-05-06T10:10:01.946Z,75.23
2019-05-06T10:15:03.135Z,73.17
2019-05-06T10:20:02.900Z,73.04
2019-05-06T10:25:03.769Z,76.04
2019-05-06T10:30:03.210Z,73.42
2019-05-06T10:35:02.813Z,71.78
2019-05-06T10:40:03.110Z,72.69
2019-05-06T10:45:01.938Z,71.4
2019-05-06T10:50:02.221Z,72.8
2019-05-06T10:55:03.373Z,71.77
2019-05-06T11:00:01.769Z,70.16
2019-05-06T11:05:02.788Z,73.69
2019-05-06T11:10:02.606Z,71.67
2019-05-06T11:15:03.522Z,70.03
2019-05-06T11:20:06.187Z,69.83
2019-05-06T11:25:03.102Z,71.58
2019-05-06T11:30:02.341Z,73.99
2019-05-06T11:35:03.777Z,74.27
2019-05-06T11:40:02.073Z,72.76
2019-05-06T11:45:03.183Z,72.69
2019-05-06T11:50:02.468Z,75.53
2019-05-06T11:55:02.283Z,76.37
2019-05-06T12:00:03.130Z,76.4
2019-05-06T12:05:02.381Z,77.37
2019-05-06T12:10:02.530Z,78.12
2019-05-06T12:15:03.480Z,78.8
2019-05-06T12:20:02.886Z,77.07
2019-05-06T12:25:04.447Z,77.41
2019-05-06T12:30:05.238Z,76.3
2019-05-06T12:35:03.457Z,75.81
2019-05-06T12:40:03.398Z,76.47
2019-05-06T12:45:03.598Z,76.36
2019-05-06T12:50:02.744Z,77.22
2019-05-06T12:55:17.078Z,71.75
2019-05-06T13:00:03.458Z,71.29
2019-05-06T13:05:04.071Z,71.72
2019-05-06T13:10:02.838Z,71.96
2019-05-06T13:15:03.763Z,71.98
2019-05-06T13:20:02.414Z,72.4
2019-05-06T13:25:04.001Z,72.5
2019-05-06T13:30:02.424Z,72.95
2019-05-06T13:35:02.964Z,73.65
2019-05-06T13:40:02.306Z,71.98
2019-05-06T13:45:02.927Z,72.55
2019-05-06T13:50:02.890Z,72.82
2019-05-06T13:55:02.589Z,70.47
2019-05-06T14:00:03.129Z,71.87
2019-05-06T14:05:02.939Z,73.02
2019-05-06T14:10:02.634Z,71.53
2019-05-06T14:15:04.314Z,72.04
2019-05-06T14:20:02.707Z,73.54
2019-05-06T14:25:01.936Z,70.71
2019-05-06T14:30:04.529Z,70.96
2019-05-06T14:35:01.948Z,72.95
2019-05-06T14:40:02.051Z,70.29
2019-05-06T14:45:01.248Z,71.69
2019-05-06T14:50:03.906Z,69.27
2019-05-06T14:55:01.188Z,69.08
2019-05-06T15:00:01.376Z,67.85
2019-05-06T15:05:02.917Z,68.41
2019-05-06T15:10:16.522Z,68.9
2019-05-06T15:15:03.843Z,67.97
2019-05-06T15:20:02.868Z,66.64
2019-05-06T15:25:02.467Z,69.58
2019-05-06T15:30:03.317Z,68.21
2019-05-06T15:35:02.602Z,66.28
2019-05-06T15:40:03.063Z,69.2
2019-05-06T15:45:01.402Z,69.38
2019-05-06T15:50:01.516Z,66.41
2019-05-06T15:55:03.272Z,66.13
2019-05-06T16:00:02.551Z,67.99
2019-05-06T16:05:06.646Z,68.5
2019-05-06T16:10:02.566Z,69.01
2019-05-06T16:15:02.614Z,69.32
2019-05-06T16:20:02.808Z,70.26
2019-05-06T16:25:02.676Z,69.21
2019-05-06T16:30:03.367Z,72.44
2019-05-06T16:35:01.754Z,73.4
2019-05-06T16:40:02.765Z,77.62
2019-05-06T16:45:06.909Z,81.92
2019-05-06T16:50:01.292Z,84.15
2019-05-06T16:55:03.167Z,85.6
2019-05-06T17:00:02.962Z,83.88
2019-05-06T17:05:03.413Z,83.92
2019-05-06T17:10:03.444Z,84.28
2019-05-06T17:15:03.772Z,85.88
2019-05-06T17:20:03.098Z,87.39
2019-05-06T17:25:02.403Z,87.43
2019-05-06T17:30:01.633Z,87.89
2019-05-06T17:35:02.595Z,88.38
2019-05-06T17:40:07.932Z,88.44
2019-05-06T17:45:01.667Z,88.43
2019-05-06T17:50:02.820Z,87.38
2019-05-06T17:55:02.926Z,87.03
2019-05-06T18:00:03.244Z,87.4
2019-05-06T18:05:02.881Z,88.69
2019-05-06T18:10:03.077Z,89.12
2019-05-06T18:15:02.680Z,87.59
2019-05-06T18:20:02.954Z,87.41
2019-05-06T18:25:02.265Z,88.44
2019-05-06T18:30:13.378Z,88.74
2019-05-06T18:35:02.634Z,88.81
2019-05-06T18:40:01.962Z,89.23
2019-05-06T18:45:02.726Z,88.75
2019-05-06T18:50:02.329Z,89.12
2019-05-06T18:55:01.590Z,89.55
2019-05-06T19:00:03.091Z,89.69
2019-05-06T19:05:02.215Z,89.13
2019-05-06T19:10:03.232Z,89.38
2019-05-06T19:15:03.285Z,89.62
2019-05-06T19:20:02.628Z,90.57
2019-05-06T19:25:02.780Z,90.71
2019-05-06T19:30:02.512Z,91.17
2019-05-06T19:35:02.754Z,91.52
2019-05-06T19:40:02.945Z,91.71
2019-05-06T19:45:02.469Z,91.39
2019-05-06T19:50:02.814Z,92
2019-05-06T19:55:03.114Z,92.55
2019-05-06T20:00:03.166Z,93.22
2019-05-06T20:05:03.170Z,93.19
2019-05-06T20:10:03.224Z,93.14
2019-05-06T20:15:02.190Z,93.28
2019-05-06T20:20:02.855Z,93.59
2019-05-06T20:25:03.064Z,93.9
2019-05-06T20:30:03.383Z,94.03
2019-05-06T20:35:01.586Z,94.02
2019-05-06T20:40:02.421Z,94.22
2019-05-06T20:45:02.208Z,94.27
2019-05-06T20:50:02.382Z,94.37
2019-05-06T20:55:02.911Z,94.51
2019-05-06T21:00:03.441Z,94.5
2019-05-06T21:05:02.238Z,94.63
2019-05-06T21:10:02.261Z,94.64
2019-05-06T21:15:02.357Z,94.76
2019-05-06T21:20:02.774Z,94.8
2019-05-06T21:25:02.445Z,94.83
2019-05-06T21:30:02.514Z,94.84
2019-05-06T21:35:02.288Z,94.7
2019-05-06T21:40:02.685Z,94.94
2019-05-06T21:45:03.267Z,94.99
2019-05-06T21:50:01.438Z,94.86
2019-05-06T21:55:02.543Z,94.57
2019-05-06T22:00:02.630Z,94.81
2019-05-06T22:05:02.692Z,94.64
2019-05-06T22:10:01.989Z,94.59
2019-05-06T22:15:04.833Z,94.55
2019-05-06T22:20:03.264Z,94.77
2019-05-06T22:25:02.801Z,94.64
2019-05-06T22:30:03.195Z,94.38
2019-05-06T22:35:02.392Z,94.54
2019-05-06T22:40:02.328Z,94.25
2019-05-06T22:45:02.049Z,94.32
2019-05-06T22:50:02.205Z,93.91
2019-05-06T22:55:03.783Z,94.25
2019-05-06T23:00:03.543Z,94.17
2019-05-06T23:05:04.244Z,94.09
2019-05-06T23:10:01.602Z,93.45
2019-05-06T23:15:02.650Z,93.47
2019-05-06T23:20:02.402Z,93.52
2019-05-06T23:25:02.325Z,92.68
2019-05-06T23:30:03.198Z,92.43
2019-05-06T23:35:03.237Z,92.18
2019-05-06T23:40:03.486Z,92.35
2019-05-06T23:45:02.562Z,92.67
2019-05-06T23:50:03.561Z,93.29
2019-05-06T23:55:03.222Z,94.12
